sensor_id;sensor_type;location;lat;lon;timestamp;P1;durP1;ratioP1;P2;durP2;ratioP2
7887;SDS011;3989;48.810;9.208;2023-04-03T00:01:03;2.00;;;1.90;;
7887;SDS011;3989;48.810;9.208;2023-04-03T00:03:31;2.80;;;2.60;;
7887;SDS011;3989;48.810;9.208;2023-04-03T00:05:57;2.73;;;2.43;;
7887;SDS011;3989;48.810;9.208;2023-04-03T00:08:25;3.53;;;2.63;;
7887;SDS011;3989;48.810;9.208;2023-04-03T00:10:52;2.13;;;2.03;;
7887;SDS011;3989;48.810;9.208;2023-04-03T00:13:19;2.77;;;2.57;;
7887;SDS011;3989;48.810;9.208;2023-04-03T00:15:45;2.43;;;2.33;;
7887;SDS011;3989;48.810;9.208;2023-04-03T00:18:12;3.07;;;2.87;;
7887;SDS011;3989;48.810;9.208;2023-04-03T00:20:38;2.50;;;2.30;;
7887;SDS011;3989;48.810;9.208;2023-04-03T00:23:05;2.37;;;2.27;;
7887;SDS011;3989;48.810;9.208;2023-04-03T00:25:33;2.20;;;2.00;;
7887;SDS011;3989;48.810;9.208;2023-04-03T00:28:00;2.53;;;2.33;;
7887;SDS011;3989;48.810;9.208;2023-04-03T00:30:27;2.33;;;2.10;;
7887;SDS011;3989;48.810;9.208;2023-04-03T00:32:54;2.43;;;2.23;;
7887;SDS011;3989;48.810;9.208;2023-04-03T00:35:21;2.20;;;2.10;;
7887;SDS011;3989;48.810;9.208;2023-04-03T00:37:50;2.67;;;2.20;;
7887;SDS011;3989;48.810;9.208;2023-04-03T00:40:16;2.97;;;2.77;;
7887;SDS011;3989;48.810;9.208;2023-04-03T00:42:45;2.77;;;2.60;;
7887;SDS011;3989;48.810;9.208;2023-04-03T00:48:00;2.27;;;2.17;;
7887;SDS011;3989;48.810;9.208;2023-04-03T00:50:30;2.63;;;2.30;;
7887;SDS011;3989;48.810;9.208;2023-04-03T00:53:00;2.40;;;2.20;;
7887;SDS011;3989;48.810;9.208;2023-04-03T00:55:27;2.37;;;2.27;;
7887;SDS011;3989;48.810;9.208;2023-04-03T00:57:55;2.50;;;2.40;;
7887;SDS011;3989;48.810;9.208;2023-04-03T01:00:22;2.37;;;2.27;;
7887;SDS011;3989;48.810;9.208;2023-04-03T01:02:50;2.93;;;2.10;;
7887;SDS011;3989;48.810;9.208;2023-04-03T01:05:17;2.73;;;2.63;;
7887;SDS011;3989;48.810;9.208;2023-04-03T01:07:46;2.60;;;2.33;;
7887;SDS011;3989;48.810;9.208;2023-04-03T01:10:15;3.43;;;2.63;;
7887;SDS011;3989;48.810;9.208;2023-04-03T01:12:44;4.37;;;2.90;;
7887;SDS011;3989;48.810;9.208;2023-04-03T01:15:14;2.43;;;2.33;;
7887;SDS011;3989;48.810;9.208;2023-04-03T01:17:43;2.67;;;2.40;;
7887;SDS011;3989;48.810;9.208;2023-04-03T01:23:32;2.63;;;2.53;;
7887;SDS011;3989;48.810;9.208;2023-04-03T01:26:07;2.30;;;2.20;;
7887;SDS011;3989;48.810;9.208;2023-04-03T01:28:35;2.03;;;1.93;;
7887;SDS011;3989;48.810;9.208;2023-04-03T01:31:06;2.77;;;2.57;;
7887;SDS011;3989;48.810;9.208;2023-04-03T01:33:41;2.47;;;2.27;;
7887;SDS011;3989;48.810;9.208;2023-04-03T01:36:09;3.13;;;2.33;;
7887;SDS011;3989;48.810;9.208;2023-04-03T01:38:39;2.50;;;2.30;;
7887;SDS011;3989;48.810;9.208;2023-04-03T01:41:05;3.50;;;2.63;;
7887;SDS011;3989;48.810;9.208;2023-04-03T01:43:32;2.53;;;2.37;;
7887;SDS011;3989;48.810;9.208;2023-04-03T01:45:58;3.00;;;2.80;;
7887;SDS011;3989;48.810;9.208;2023-04-03T01:48:25;2.60;;;2.40;;
7887;SDS011;3989;48.810;9.208;2023-04-03T01:50:53;2.17;;;2.07;;
7887;SDS011;3989;48.810;9.208;2023-04-03T01:53:20;2.57;;;2.37;;
7887;SDS011;3989;48.810;9.208;2023-04-03T01:55:47;2.93;;;2.70;;
7887;SDS011;3989;48.810;9.208;2023-04-03T01:58:14;2.50;;;2.40;;
7887;SDS011;3989;48.810;9.208;2023-04-03T02:00:40;3.70;;;2.20;;
7887;SDS011;3989;48.810;9.208;2023-04-03T02:03:07;2.77;;;2.40;;
7887;SDS011;3989;48.810;9.208;2023-04-03T02:05:33;2.97;;;2.77;;
7887;SDS011;3989;48.810;9.208;2023-04-03T02:08:01;2.80;;;2.63;;
7887;SDS011;3989;48.810;9.208;2023-04-03T02:10:28;4.47;;;2.67;;
7887;SDS011;3989;48.810;9.208;2023-04-03T02:12:55;2.53;;;2.33;;
7887;SDS011;3989;48.810;9.208;2023-04-03T02:15:21;2.33;;;2.17;;
7887;SDS011;3989;48.810;9.208;2023-04-03T02:17:48;3.77;;;2.70;;
7887;SDS011;3989;48.810;9.208;2023-04-03T02:20:14;2.50;;;2.40;;
7887;SDS011;3989;48.810;9.208;2023-04-03T02:22:41;2.53;;;2.33;;
7887;SDS011;3989;48.810;9.208;2023-04-03T02:25:09;2.70;;;2.50;;
7887;SDS011;3989;48.810;9.208;2023-04-03T02:27:36;2.77;;;2.57;;
7887;SDS011;3989;48.810;9.208;2023-04-03T02:30:03;2.43;;;2.33;;
7887;SDS011;3989;48.810;9.208;2023-04-03T02:32:31;2.90;;;2.70;;
7887;SDS011;3989;48.810;9.208;2023-04-03T02:34:57;3.07;;;2.50;;
7887;SDS011;3989;48.810;9.208;2023-04-03T02:37:24;2.40;;;2.23;;
7887;SDS011;3989;48.810;9.208;2023-04-03T02:39:51;2.40;;;2.30;;
7887;SDS011;3989;48.810;9.208;2023-04-03T02:42:19;2.67;;;2.47;;
7887;SDS011;3989;48.810;9.208;2023-04-03T02:44:45;2.53;;;2.37;;
7887;SDS011;3989;48.810;9.208;2023-04-03T02:47:12;2.70;;;2.50;;
7887;SDS011;3989;48.810;9.208;2023-04-03T02:49:38;3.07;;;2.80;;
7887;SDS011;3989;48.810;9.208;2023-04-03T02:52:05;2.33;;;2.23;;
7887;SDS011;3989;48.810;9.208;2023-04-03T02:54:31;2.20;;;2.10;;
7887;SDS011;3989;48.810;9.208;2023-04-03T02:56:58;2.30;;;2.20;;
7887;SDS011;3989;48.810;9.208;2023-04-03T02:59:26;2.80;;;2.60;;
7887;SDS011;3989;48.810;9.208;2023-04-03T03:01:52;2.17;;;2.03;;
7887;SDS011;3989;48.810;9.208;2023-04-03T03:04:20;4.60;;;2.30;;
7887;SDS011;3989;48.810;9.208;2023-04-03T03:06:46;2.60;;;2.40;;
7887;SDS011;3989;48.810;9.208;2023-04-03T03:09:13;2.20;;;2.00;;
7887;SDS011;3989;48.810;9.208;2023-04-03T03:11:40;2.17;;;2.07;;
7887;SDS011;3989;48.810;9.208;2023-04-03T03:14:06;2.50;;;2.40;;
7887;SDS011;3989;48.810;9.208;2023-04-03T03:16:34;2.80;;;2.40;;
7887;SDS011;3989;48.810;9.208;2023-04-03T03:19:01;2.43;;;2.33;;
7887;SDS011;3989;48.810;9.208;2023-04-03T03:21:28;2.43;;;2.27;;
7887;SDS011;3989;48.810;9.208;2023-04-03T03:23:54;2.30;;;2.20;;
7887;SDS011;3989;48.810;9.208;2023-04-03T03:26:21;2.43;;;2.23;;
7887;SDS011;3989;48.810;9.208;2023-04-03T03:28:48;2.87;;;2.67;;
7887;SDS011;3989;48.810;9.208;2023-04-03T03:31:15;2.70;;;2.50;;
7887;SDS011;3989;48.810;9.208;2023-04-03T03:33:43;2.60;;;2.40;;
7887;SDS011;3989;48.810;9.208;2023-04-03T03:36:10;2.83;;;2.20;;
7887;SDS011;3989;48.810;9.208;2023-04-03T03:38:36;3.03;;;2.50;;
7887;SDS011;3989;48.810;9.208;2023-04-03T03:41:03;2.10;;;2.00;;
7887;SDS011;3989;48.810;9.208;2023-04-03T03:43:30;2.37;;;2.17;;
7887;SDS011;3989;48.810;9.208;2023-04-03T03:45:57;2.20;;;2.10;;
7887;SDS011;3989;48.810;9.208;2023-04-03T03:48:23;2.30;;;2.20;;
7887;SDS011;3989;48.810;9.208;2023-04-03T03:50:51;3.50;;;2.20;;
7887;SDS011;3989;48.810;9.208;2023-04-03T03:53:18;2.83;;;2.63;;
7887;SDS011;3989;48.810;9.208;2023-04-03T03:55:45;2.90;;;2.70;;
7887;SDS011;3989;48.810;9.208;2023-04-03T03:58:11;2.20;;;2.10;;
7887;SDS011;3989;48.810;9.208;2023-04-03T04:00:38;2.50;;;2.40;;
7887;SDS011;3989;48.810;9.208;2023-04-03T04:03:05;2.13;;;1.97;;
7887;SDS011;3989;48.810;9.208;2023-04-03T04:05:31;2.57;;;2.47;;
7887;SDS011;3989;48.810;9.208;2023-04-03T04:07:59;3.03;;;2.80;;
7887;SDS011;3989;48.810;9.208;2023-04-03T04:10:26;2.30;;;2.20;;
7887;SDS011;3989;48.810;9.208;2023-04-03T04:12:53;2.30;;;2.10;;
7887;SDS011;3989;48.810;9.208;2023-04-03T04:15:20;2.77;;;2.57;;
7887;SDS011;3989;48.810;9.208;2023-04-03T04:17:47;4.00;;;2.40;;
7887;SDS011;3989;48.810;9.208;2023-04-03T04:20:14;4.07;;;2.30;;
7887;SDS011;3989;48.810;9.208;2023-04-03T04:22:41;2.87;;;2.60;;
7887;SDS011;3989;48.810;9.208;2023-04-03T04:25:09;2.20;;;2.10;;
7887;SDS011;3989;48.810;9.208;2023-04-03T04:27:35;2.27;;;2.17;;
7887;SDS011;3989;48.810;9.208;2023-04-03T04:30:03;2.07;;;1.90;;
7887;SDS011;3989;48.810;9.208;2023-04-03T04:32:30;3.23;;;3.00;;
7887;SDS011;3989;48.810;9.208;2023-04-03T04:34:56;2.57;;;2.37;;
7887;SDS011;3989;48.810;9.208;2023-04-03T04:37:23;2.73;;;2.53;;
7887;SDS011;3989;48.810;9.208;2023-04-03T04:39:49;3.77;;;1.93;;
7887;SDS011;3989;48.810;9.208;2023-04-03T04:42:17;1.97;;;1.87;;
7887;SDS011;3989;48.810;9.208;2023-04-03T04:44:44;2.43;;;2.00;;
7887;SDS011;3989;48.810;9.208;2023-04-03T04:47:10;2.50;;;2.13;;
7887;SDS011;3989;48.810;9.208;2023-04-03T04:49:37;2.10;;;2.00;;
7887;SDS011;3989;48.810;9.208;2023-04-03T04:52:04;2.20;;;1.93;;
7887;SDS011;3989;48.810;9.208;2023-04-03T04:54:31;2.10;;;2.00;;
7887;SDS011;3989;48.810;9.208;2023-04-03T04:56:58;2.10;;;2.00;;
7887;SDS011;3989;48.810;9.208;2023-04-03T04:59:26;2.33;;;1.90;;
7887;SDS011;3989;48.810;9.208;2023-04-03T05:01:52;2.07;;;1.97;;
7887;SDS011;3989;48.810;9.208;2023-04-03T05:04:19;1.97;;;1.77;;
7887;SDS011;3989;48.810;9.208;2023-04-03T05:06:46;3.27;;;1.87;;
7887;SDS011;3989;48.810;9.208;2023-04-03T05:09:12;2.07;;;1.97;;
7887;SDS011;3989;48.810;9.208;2023-04-03T05:11:39;1.90;;;1.80;;
7887;SDS011;3989;48.810;9.208;2023-04-03T05:14:06;2.30;;;2.00;;
7887;SDS011;3989;48.810;9.208;2023-04-03T05:16:34;2.10;;;2.00;;
7887;SDS011;3989;48.810;9.208;2023-04-03T05:19:00;2.17;;;1.97;;
7887;SDS011;3989;48.810;9.208;2023-04-03T05:21:27;1.93;;;1.83;;
7887;SDS011;3989;48.810;9.208;2023-04-03T05:23:57;2.00;;;1.90;;
7887;SDS011;3989;48.810;9.208;2023-04-03T05:26:24;2.20;;;2.00;;
7887;SDS011;3989;48.810;9.208;2023-04-03T05:28:51;1.90;;;1.80;;
7887;SDS011;3989;48.810;9.208;2023-04-03T05:31:17;2.17;;;2.00;;
7887;SDS011;3989;48.810;9.208;2023-04-03T05:33:45;1.97;;;1.87;;
7887;SDS011;3989;48.810;9.208;2023-04-03T05:36:12;2.60;;;2.13;;
7887;SDS011;3989;48.810;9.208;2023-04-03T05:38:39;2.10;;;2.00;;
7887;SDS011;3989;48.810;9.208;2023-04-03T05:41:06;3.17;;;2.03;;
7887;SDS011;3989;48.810;9.208;2023-04-03T05:43:33;2.47;;;2.27;;
7887;SDS011;3989;48.810;9.208;2023-04-03T05:46:02;1.90;;;1.80;;
7887;SDS011;3989;48.810;9.208;2023-04-03T05:48:29;2.17;;;1.97;;
7887;SDS011;3989;48.810;9.208;2023-04-03T05:50:57;2.53;;;1.83;;
7887;SDS011;3989;48.810;9.208;2023-04-03T05:53:25;2.17;;;2.07;;
7887;SDS011;3989;48.810;9.208;2023-04-03T05:55:55;3.43;;;2.07;;
7887;SDS011;3989;48.810;9.208;2023-04-03T05:58:22;2.73;;;1.83;;
7887;SDS011;3989;48.810;9.208;2023-04-03T06:00:48;2.30;;;2.10;;
7887;SDS011;3989;48.810;9.208;2023-04-03T06:03:15;3.10;;;2.30;;
7887;SDS011;3989;48.810;9.208;2023-04-03T06:05:41;2.83;;;1.73;;
7887;SDS011;3989;48.810;9.208;2023-04-03T06:08:09;2.40;;;2.20;;
7887;SDS011;3989;48.810;9.208;2023-04-03T06:10:36;2.83;;;2.07;;
7887;SDS011;3989;48.810;9.208;2023-04-03T06:13:03;2.40;;;2.20;;
7887;SDS011;3989;48.810;9.208;2023-04-03T06:15:31;2.37;;;2.27;;
7887;SDS011;3989;48.810;9.208;2023-04-03T06:17:58;2.23;;;2.03;;
7887;SDS011;3989;48.810;9.208;2023-04-03T06:20:25;2.83;;;1.83;;
7887;SDS011;3989;48.810;9.208;2023-04-03T06:22:52;1.97;;;1.77;;
7887;SDS011;3989;48.810;9.208;2023-04-03T06:25:20;7.83;;;2.73;;
7887;SDS011;3989;48.810;9.208;2023-04-03T06:27:47;3.00;;;2.00;;
7887;SDS011;3989;48.810;9.208;2023-04-03T06:30:13;2.00;;;1.90;;
7887;SDS011;3989;48.810;9.208;2023-04-03T06:32:40;2.37;;;2.13;;
7887;SDS011;3989;48.810;9.208;2023-04-03T06:35:08;2.30;;;2.20;;
7887;SDS011;3989;48.810;9.208;2023-04-03T06:37:35;2.07;;;1.80;;
7887;SDS011;3989;48.810;9.208;2023-04-03T06:40:02;3.20;;;1.93;;
7887;SDS011;3989;48.810;9.208;2023-04-03T06:42:32;2.00;;;1.80;;
7887;SDS011;3989;48.810;9.208;2023-04-03T06:44:58;2.20;;;1.87;;
7887;SDS011;3989;48.810;9.208;2023-04-03T06:47:25;2.87;;;2.27;;
7887;SDS011;3989;48.810;9.208;2023-04-03T06:49:52;4.07;;;2.20;;
7887;SDS011;3989;48.810;9.208;2023-04-03T06:52:19;4.63;;;2.10;;
7887;SDS011;3989;48.810;9.208;2023-04-03T06:54:45;2.40;;;2.20;;
7887;SDS011;3989;48.810;9.208;2023-04-03T06:57:12;2.33;;;2.03;;
7887;SDS011;3989;48.810;9.208;2023-04-03T06:59:41;2.03;;;1.93;;
7887;SDS011;3989;48.810;9.208;2023-04-03T07:02:09;2.57;;;2.23;;
7887;SDS011;3989;48.810;9.208;2023-04-03T07:04:37;2.33;;;2.07;;
7887;SDS011;3989;48.810;9.208;2023-04-03T07:07:04;3.53;;;1.73;;
7887;SDS011;3989;48.810;9.208;2023-04-03T07:09:31;2.37;;;2.17;;
7887;SDS011;3989;48.810;9.208;2023-04-03T07:11:57;2.67;;;2.10;;
7887;SDS011;3989;48.810;9.208;2023-04-03T07:14:24;2.23;;;2.00;;
7887;SDS011;3989;48.810;9.208;2023-04-03T07:16:52;3.40;;;2.00;;
7887;SDS011;3989;48.810;9.208;2023-04-03T07:19:18;2.70;;;2.00;;
7887;SDS011;3989;48.810;9.208;2023-04-03T07:21:46;5.33;;;2.43;;
7887;SDS011;3989;48.810;9.208;2023-04-03T07:24:13;1.93;;;1.83;;
7887;SDS011;3989;48.810;9.208;2023-04-03T07:26:41;2.53;;;2.37;;
7887;SDS011;3989;48.810;9.208;2023-04-03T07:29:08;2.43;;;2.23;;
7887;SDS011;3989;48.810;9.208;2023-04-03T07:31:34;1.93;;;1.83;;
7887;SDS011;3989;48.810;9.208;2023-04-03T07:34:02;2.37;;;2.17;;
7887;SDS011;3989;48.810;9.208;2023-04-03T07:36:29;2.40;;;2.30;;
7887;SDS011;3989;48.810;9.208;2023-04-03T07:38:58;2.50;;;2.10;;
7887;SDS011;3989;48.810;9.208;2023-04-03T07:41:24;3.43;;;2.57;;
7887;SDS011;3989;48.810;9.208;2023-04-03T07:43:51;2.07;;;1.87;;
7887;SDS011;3989;48.810;9.208;2023-04-03T07:46:18;2.13;;;1.90;;
7887;SDS011;3989;48.810;9.208;2023-04-03T07:48:45;2.77;;;2.17;;
7887;SDS011;3989;48.810;9.208;2023-04-03T07:51:13;2.00;;;1.90;;
7887;SDS011;3989;48.810;9.208;2023-04-03T07:53:40;2.13;;;1.97;;
7887;SDS011;3989;48.810;9.208;2023-04-03T07:56:07;2.60;;;2.40;;
7887;SDS011;3989;48.810;9.208;2023-04-03T07:58:34;2.30;;;2.10;;
7887;SDS011;3989;48.810;9.208;2023-04-03T08:01:01;2.70;;;2.10;;
7887;SDS011;3989;48.810;9.208;2023-04-03T08:03:27;3.97;;;2.63;;
7887;SDS011;3989;48.810;9.208;2023-04-03T08:05:54;2.47;;;2.20;;
7887;SDS011;3989;48.810;9.208;2023-04-03T08:08:22;2.73;;;2.10;;
7887;SDS011;3989;48.810;9.208;2023-04-03T08:10:49;4.03;;;2.40;;
7887;SDS011;3989;48.810;9.208;2023-04-03T08:13:16;2.20;;;1.97;;
7887;SDS011;3989;48.810;9.208;2023-04-03T08:15:43;2.53;;;1.97;;
7887;SDS011;3989;48.810;9.208;2023-04-03T08:18:10;2.20;;;1.77;;
7887;SDS011;3989;48.810;9.208;2023-04-03T08:20:37;2.40;;;2.20;;
7887;SDS011;3989;48.810;9.208;2023-04-03T08:23:04;3.77;;;2.37;;
7887;SDS011;3989;48.810;9.208;2023-04-03T08:25:32;2.20;;;2.10;;
7887;SDS011;3989;48.810;9.208;2023-04-03T08:27:59;2.57;;;1.97;;
7887;SDS011;3989;48.810;9.208;2023-04-03T08:30:27;2.53;;;2.33;;
7887;SDS011;3989;48.810;9.208;2023-04-03T08:32:53;3.53;;;2.20;;
7887;SDS011;3989;48.810;9.208;2023-04-03T08:35:20;2.77;;;2.60;;
7887;SDS011;3989;48.810;9.208;2023-04-03T08:37:46;1.93;;;1.57;;
7887;SDS011;3989;48.810;9.208;2023-04-03T08:40:15;3.27;;;2.00;;
7887;SDS011;3989;48.810;9.208;2023-04-03T08:42:47;2.20;;;2.10;;
7887;SDS011;3989;48.810;9.208;2023-04-03T08:45:21;2.70;;;2.00;;
7887;SDS011;3989;48.810;9.208;2023-04-03T08:47:55;2.30;;;2.00;;
7887;SDS011;3989;48.810;9.208;2023-04-03T08:50:31;2.63;;;2.33;;
7887;SDS011;3989;48.810;9.208;2023-04-03T08:53:02;2.17;;;2.07;;
7887;SDS011;3989;48.810;9.208;2023-04-03T08:55:32;3.30;;;1.77;;
7887;SDS011;3989;48.810;9.208;2023-04-03T08:58:02;2.07;;;1.97;;
7887;SDS011;3989;48.810;9.208;2023-04-03T09:00:32;2.57;;;2.10;;
7887;SDS011;3989;48.810;9.208;2023-04-03T09:03:03;2.77;;;2.20;;
7887;SDS011;3989;48.810;9.208;2023-04-03T09:05:33;2.60;;;2.40;;
7887;SDS011;3989;48.810;9.208;2023-04-03T09:08:07;1.90;;;1.80;;
7887;SDS011;3989;48.810;9.208;2023-04-03T09:10:41;2.33;;;2.10;;
7887;SDS011;3989;48.810;9.208;2023-04-03T09:13:10;2.60;;;1.80;;
7887;SDS011;3989;48.810;9.208;2023-04-03T09:15:43;3.83;;;1.83;;
7887;SDS011;3989;48.810;9.208;2023-04-03T09:18:12;2.13;;;1.90;;
7887;SDS011;3989;48.810;9.208;2023-04-03T09:20:44;2.20;;;2.00;;
7887;SDS011;3989;48.810;9.208;2023-04-03T09:23:18;3.20;;;2.00;;
7887;SDS011;3989;48.810;9.208;2023-04-03T09:25:48;2.87;;;2.47;;
7887;SDS011;3989;48.810;9.208;2023-04-03T09:28:20;1.80;;;1.70;;
7887;SDS011;3989;48.810;9.208;2023-04-03T09:30:47;2.03;;;1.90;;
7887;SDS011;3989;48.810;9.208;2023-04-03T09:33:13;2.00;;;1.90;;
7887;SDS011;3989;48.810;9.208;2023-04-03T09:35:40;6.17;;;1.87;;
7887;SDS011;3989;48.810;9.208;2023-04-03T09:38:20;1.80;;;1.70;;
7887;SDS011;3989;48.810;9.208;2023-04-03T09:40:48;2.20;;;1.70;;
7887;SDS011;3989;48.810;9.208;2023-04-03T09:43:28;1.87;;;1.77;;
7887;SDS011;3989;48.810;9.208;2023-04-03T09:46:16;3.13;;;1.97;;
7887;SDS011;3989;48.810;9.208;2023-04-03T09:48:55;4.30;;;1.93;;
7887;SDS011;3989;48.810;9.208;2023-04-03T09:51:24;1.80;;;1.70;;
7887;SDS011;3989;48.810;9.208;2023-04-03T09:53:53;2.00;;;1.90;;
7887;SDS011;3989;48.810;9.208;2023-04-03T09:56:21;2.13;;;1.83;;
7887;SDS011;3989;48.810;9.208;2023-04-03T09:58:52;1.70;;;1.60;;
7887;SDS011;3989;48.810;9.208;2023-04-03T10:01:34;2.13;;;1.90;;
7887;SDS011;3989;48.810;9.208;2023-04-03T10:04:03;1.93;;;1.83;;
7887;SDS011;3989;48.810;9.208;2023-04-03T10:06:33;1.40;;;1.40;;
7887;SDS011;3989;48.810;9.208;2023-04-03T10:09:05;3.30;;;1.90;;
7887;SDS011;3989;48.810;9.208;2023-04-03T10:11:39;1.73;;;1.67;;
7887;SDS011;3989;48.810;9.208;2023-04-03T10:14:25;2.13;;;1.70;;
7887;SDS011;3989;48.810;9.208;2023-04-03T10:16:53;1.60;;;1.50;;
7887;SDS011;3989;48.810;9.208;2023-04-03T10:19:31;1.80;;;1.70;;
7887;SDS011;3989;48.810;9.208;2023-04-03T10:22:03;2.07;;;1.50;;
7887;SDS011;3989;48.810;9.208;2023-04-03T10:24:36;1.87;;;1.47;;
7887;SDS011;3989;48.810;9.208;2023-04-03T10:27:15;1.63;;;1.50;;
7887;SDS011;3989;48.810;9.208;2023-04-03T10:29:50;1.60;;;1.50;;
7887;SDS011;3989;48.810;9.208;2023-04-03T10:32:28;1.47;;;1.40;;
7887;SDS011;3989;48.810;9.208;2023-04-03T10:35:12;2.57;;;1.50;;
7887;SDS011;3989;48.810;9.208;2023-04-03T10:37:50;4.00;;;1.90;;
7887;SDS011;3989;48.810;9.208;2023-04-03T10:40:29;2.60;;;1.97;;
7887;SDS011;3989;48.810;9.208;2023-04-03T10:43:01;1.83;;;1.63;;
7887;SDS011;3989;48.810;9.208;2023-04-03T10:45:36;2.73;;;1.77;;
7887;SDS011;3989;48.810;9.208;2023-04-03T10:48:16;1.60;;;1.50;;
7887;SDS011;3989;48.810;9.208;2023-04-03T10:50:52;1.50;;;1.40;;
7887;SDS011;3989;48.810;9.208;2023-04-03T10:53:28;3.43;;;1.40;;
7887;SDS011;3989;48.810;9.208;2023-04-03T10:56:02;1.60;;;1.10;;
7887;SDS011;3989;48.810;9.208;2023-04-03T10:58:34;1.20;;;1.20;;
7887;SDS011;3989;48.810;9.208;2023-04-03T11:01:07;3.07;;;1.70;;
7887;SDS011;3989;48.810;9.208;2023-04-03T11:03:38;1.60;;;1.50;;
7887;SDS011;3989;48.810;9.208;2023-04-03T11:06:10;1.87;;;1.23;;
7887;SDS011;3989;48.810;9.208;2023-04-03T11:08:41;3.60;;;1.37;;
7887;SDS011;3989;48.810;9.208;2023-04-03T11:11:11;1.67;;;1.57;;
7887;SDS011;3989;48.810;9.208;2023-04-03T11:13:41;1.63;;;1.53;;
7887;SDS011;3989;48.810;9.208;2023-04-03T11:16:15;1.90;;;1.70;;
7887;SDS011;3989;48.810;9.208;2023-04-03T11:18:47;1.20;;;1.20;;
7887;SDS011;3989;48.810;9.208;2023-04-03T11:21:19;7.73;;;1.20;;
7887;SDS011;3989;48.810;9.208;2023-04-03T11:23:49;1.83;;;1.60;;
7887;SDS011;3989;48.810;9.208;2023-04-03T11:26:18;1.97;;;1.17;;
7887;SDS011;3989;48.810;9.208;2023-04-03T11:28:52;3.70;;;1.57;;
7887;SDS011;3989;48.810;9.208;2023-04-03T11:31:26;2.03;;;1.50;;
7887;SDS011;3989;48.810;9.208;2023-04-03T11:34:02;3.73;;;1.40;;
7887;SDS011;3989;48.810;9.208;2023-04-03T11:36:39;1.80;;;1.70;;
7887;SDS011;3989;48.810;9.208;2023-04-03T11:39:13;2.47;;;1.43;;
7887;SDS011;3989;48.810;9.208;2023-04-03T11:41:46;2.27;;;1.33;;
7887;SDS011;3989;48.810;9.208;2023-04-03T11:44:26;6.07;;;1.77;;
7887;SDS011;3989;48.810;9.208;2023-04-03T11:46:59;1.70;;;1.60;;
7887;SDS011;3989;48.810;9.208;2023-04-03T11:55:43;1.40;;;1.30;;
7887;SDS011;3989;48.810;9.208;2023-04-03T11:58:13;3.60;;;1.20;;
7887;SDS011;3989;48.810;9.208;2023-04-03T12:12:43;1.53;;;1.40;;
7887;SDS011;3989;48.810;9.208;2023-04-03T12:18:31;2.73;;;1.60;;
7887;SDS011;3989;48.810;9.208;2023-04-03T12:21:08;4.00;;;1.37;;
7887;SDS011;3989;48.810;9.208;2023-04-03T12:23:58;1.77;;;1.60;;
7887;SDS011;3989;48.810;9.208;2023-04-03T12:26:30;1.77;;;1.43;;
7887;SDS011;3989;48.810;9.208;2023-04-03T12:29:02;2.27;;;1.43;;
7887;SDS011;3989;48.810;9.208;2023-04-03T12:31:44;1.60;;;1.50;;
7887;SDS011;3989;48.810;9.208;2023-04-03T12:34:27;1.63;;;1.40;;
7887;SDS011;3989;48.810;9.208;2023-04-03T12:37:17;2.57;;;1.40;;
7887;SDS011;3989;48.810;9.208;2023-04-03T12:40:02;2.87;;;1.67;;
7887;SDS011;3989;48.810;9.208;2023-04-03T12:42:55;1.70;;;1.60;;
7887;SDS011;3989;48.810;9.208;2023-04-03T12:45:43;1.40;;;1.30;;
7887;SDS011;3989;48.810;9.208;2023-04-03T12:48:14;1.50;;;1.40;;
7887;SDS011;3989;48.810;9.208;2023-04-03T12:50:43;1.70;;;1.60;;
7887;SDS011;3989;48.810;9.208;2023-04-03T12:53:12;2.70;;;2.23;;
7887;SDS011;3989;48.810;9.208;2023-04-03T12:55:43;4.93;;;1.73;;
7887;SDS011;3989;48.810;9.208;2023-04-03T12:58:14;1.80;;;1.40;;
7887;SDS011;3989;48.810;9.208;2023-04-03T13:00:42;2.17;;;1.50;;
7887;SDS011;3989;48.810;9.208;2023-04-03T13:03:19;2.63;;;1.70;;
7887;SDS011;3989;48.810;9.208;2023-04-03T13:05:48;1.77;;;1.50;;
7887;SDS011;3989;48.810;9.208;2023-04-03T13:08:15;1.83;;;1.30;;
7887;SDS011;3989;48.810;9.208;2023-04-03T13:10:51;1.37;;;1.23;;
7887;SDS011;3989;48.810;9.208;2023-04-03T13:13:21;1.70;;;1.60;;
7887;SDS011;3989;48.810;9.208;2023-04-03T13:15:49;2.07;;;1.70;;
7887;SDS011;3989;48.810;9.208;2023-04-03T13:18:24;2.73;;;1.47;;
7887;SDS011;3989;48.810;9.208;2023-04-03T13:20:53;1.57;;;1.47;;
7887;SDS011;3989;48.810;9.208;2023-04-03T13:23:25;2.67;;;1.57;;
7887;SDS011;3989;48.810;9.208;2023-04-03T13:25:54;1.47;;;1.33;;
7887;SDS011;3989;48.810;9.208;2023-04-03T13:28:23;2.00;;;1.67;;
7887;SDS011;3989;48.810;9.208;2023-04-03T13:30:55;1.43;;;1.33;;
7887;SDS011;3989;48.810;9.208;2023-04-03T13:33:28;2.67;;;1.40;;
7887;SDS011;3989;48.810;9.208;2023-04-03T13:36:15;1.57;;;1.47;;
7887;SDS011;3989;48.810;9.208;2023-04-03T13:38:44;4.30;;;1.50;;
7887;SDS011;3989;48.810;9.208;2023-04-03T13:41:25;3.63;;;1.40;;
7887;SDS011;3989;48.810;9.208;2023-04-03T13:43:55;2.20;;;1.50;;
7887;SDS011;3989;48.810;9.208;2023-04-03T13:46:22;1.50;;;1.40;;
7887;SDS011;3989;48.810;9.208;2023-04-03T13:48:51;2.50;;;1.60;;
7887;SDS011;3989;48.810;9.208;2023-04-03T13:51:23;1.70;;;1.60;;
7887;SDS011;3989;48.810;9.208;2023-04-03T13:53:53;2.17;;;1.77;;
7887;SDS011;3989;48.810;9.208;2023-04-03T13:56:31;1.90;;;1.53;;
7887;SDS011;3989;48.810;9.208;2023-04-03T13:59:04;1.93;;;1.70;;
7887;SDS011;3989;48.810;9.208;2023-04-03T14:01:47;2.90;;;2.27;;
7887;SDS011;3989;48.810;9.208;2023-04-03T14:04:18;2.00;;;1.83;;
7887;SDS011;3989;48.810;9.208;2023-04-03T14:06:47;2.20;;;1.80;;
7887;SDS011;3989;48.810;9.208;2023-04-03T14:09:15;1.70;;;1.60;;
7887;SDS011;3989;48.810;9.208;2023-04-03T14:11:44;1.73;;;1.63;;
7887;SDS011;3989;48.810;9.208;2023-04-03T14:14:14;3.57;;;1.83;;
7887;SDS011;3989;48.810;9.208;2023-04-03T14:16:43;1.60;;;1.50;;
7887;SDS011;3989;48.810;9.208;2023-04-03T14:19:14;1.80;;;1.70;;
7887;SDS011;3989;48.810;9.208;2023-04-03T14:21:45;2.10;;;1.90;;
7887;SDS011;3989;48.810;9.208;2023-04-03T14:24:12;2.60;;;1.77;;
7887;SDS011;3989;48.810;9.208;2023-04-03T14:26:38;1.60;;;1.40;;
7887;SDS011;3989;48.810;9.208;2023-04-03T14:29:09;1.50;;;1.40;;
7887;SDS011;3989;48.810;9.208;2023-04-03T14:31:36;1.40;;;1.30;;
7887;SDS011;3989;48.810;9.208;2023-04-03T14:34:03;1.97;;;1.77;;
7887;SDS011;3989;48.810;9.208;2023-04-03T14:36:30;2.30;;;1.63;;
7887;SDS011;3989;48.810;9.208;2023-04-03T14:38:58;1.50;;;1.40;;
7887;SDS011;3989;48.810;9.208;2023-04-03T14:41:26;1.70;;;1.60;;
7887;SDS011;3989;48.810;9.208;2023-04-03T14:43:53;1.37;;;1.33;;
7887;SDS011;3989;48.810;9.208;2023-04-03T14:46:21;1.70;;;1.60;;
7887;SDS011;3989;48.810;9.208;2023-04-03T14:48:51;1.27;;;1.27;;
7887;SDS011;3989;48.810;9.208;2023-04-03T14:51:18;1.90;;;1.50;;
7887;SDS011;3989;48.810;9.208;2023-04-03T14:53:45;1.60;;;1.50;;
7887;SDS011;3989;48.810;9.208;2023-04-03T14:56:12;1.90;;;1.70;;
7887;SDS011;3989;48.810;9.208;2023-04-03T14:58:41;1.93;;;1.83;;
7887;SDS011;3989;48.810;9.208;2023-04-03T15:01:09;3.40;;;1.57;;
7887;SDS011;3989;48.810;9.208;2023-04-03T15:03:38;1.83;;;1.40;;
7887;SDS011;3989;48.810;9.208;2023-04-03T15:06:04;3.50;;;1.73;;
7887;SDS011;3989;48.810;9.208;2023-04-03T15:08:31;1.70;;;1.60;;
7887;SDS011;3989;48.810;9.208;2023-04-03T15:10:58;2.40;;;1.80;;
7887;SDS011;3989;48.810;9.208;2023-04-03T15:13:26;1.97;;;1.77;;
7887;SDS011;3989;48.810;9.208;2023-04-03T15:15:52;1.93;;;1.70;;
7887;SDS011;3989;48.810;9.208;2023-04-03T15:18:20;1.70;;;1.60;;
7887;SDS011;3989;48.810;9.208;2023-04-03T15:20:52;3.53;;;1.67;;
7887;SDS011;3989;48.810;9.208;2023-04-03T15:23:20;2.37;;;1.27;;
7887;SDS011;3989;48.810;9.208;2023-04-03T15:25:50;2.57;;;1.60;;
7887;SDS011;3989;48.810;9.208;2023-04-03T15:28:19;1.60;;;1.50;;
7887;SDS011;3989;48.810;9.208;2023-04-03T15:30:49;1.37;;;1.33;;
7887;SDS011;3989;48.810;9.208;2023-04-03T15:33:17;1.63;;;1.53;;
7887;SDS011;3989;48.810;9.208;2023-04-03T15:35:44;3.00;;;1.60;;
7887;SDS011;3989;48.810;9.208;2023-04-03T15:38:12;2.63;;;1.60;;
7887;SDS011;3989;48.810;9.208;2023-04-03T15:40:38;2.37;;;1.40;;
7887;SDS011;3989;48.810;9.208;2023-04-03T15:43:05;1.50;;;1.40;;
7887;SDS011;3989;48.810;9.208;2023-04-03T15:45:33;1.57;;;1.47;;
7887;SDS011;3989;48.810;9.208;2023-04-03T15:48:01;1.40;;;1.30;;
7887;SDS011;3989;48.810;9.208;2023-04-03T15:50:28;1.70;;;1.60;;
7887;SDS011;3989;48.810;9.208;2023-04-03T15:52:55;2.00;;;1.90;;
7887;SDS011;3989;48.810;9.208;2023-04-03T15:55:25;1.63;;;1.53;;